createdAt,value
2022-08-27T09:30:10.919Z,95270.16
2022-08-27T09:32:39.699Z,95263.19
2022-08-27T09:35:11.214Z,95262.25
2022-08-27T09:37:43.236Z,95265.47
2022-08-27T09:40:22.789Z,95263.47
2022-08-27T09:42:54.041Z,95254.56
2022-08-27T09:45:25.459Z,95260.50
2022-08-27T09:47:55.290Z,95260.09
2022-08-27T09:50:26.089Z,95250.97
2022-08-27T09:52:56.005Z,95253.19
2022-08-27T09:55:29.067Z,95254.56
2022-08-27T09:57:57.814Z,95243.19
2022-08-27T10:00:36.960Z,95243.00
2022-08-27T10:03:06.410Z,95247.31
2022-08-27T10:05:40.670Z,95245.09
2022-08-27T10:08:20.711Z,95248.81
2022-08-27T10:10:57.140Z,95243.75
2022-08-27T10:13:31.877Z,95239.97
2022-08-27T10:16:26.586Z,95242.72
2022-08-27T10:19:04.146Z,95240.28
2022-08-27T10:21:41.956Z,95241.59
2022-08-27T10:24:22.719Z,95233.03
2022-08-27T10:27:00.183Z,95229.59
2022-08-27T10:29:37.055Z,95235.25
2022-08-27T10:32:20.271Z,95240.56
2022-08-27T10:35:08.588Z,95236.88
2022-08-27T10:37:46.116Z,95232.69
2022-08-27T10:40:18.997Z,95234.72
2022-08-27T10:42:57.848Z,95235.56
2022-08-27T10:45:42.612Z,95232.50
2022-08-27T10:48:24.394Z,95229.59
2022-08-27T10:50:57.797Z,95232.06
2022-08-27T10:53:34.657Z,95222.47
2022-08-27T10:56:14.395Z,95228.59
2022-08-27T10:58:56.763Z,95225.59
2022-08-27T11:01:36.739Z,95219.56
2022-08-27T11:04:09.143Z,95224.66
2022-08-27T11:06:39.997Z,95206.94
2022-08-27T11:09:14.387Z,95211.34
2022-08-27T11:14:37.524Z,95203.00
2022-08-27T11:17:12.636Z,95204.03
2022-08-27T11:19:54.388Z,95199.59
2022-08-27T11:22:29.517Z,95201.63
2022-08-27T11:25:03.765Z,95207.41
2022-08-27T11:27:34.394Z,95208.00
2022-08-27T11:30:07.399Z,95204.31
2022-08-27T11:32:49.246Z,95198.19
2022-08-27T11:35:24.071Z,95196.97
2022-08-27T11:38:13.559Z,95191.06
2022-08-27T11:40:56.912Z,95197.00
2022-08-27T11:43:27.888Z,95190.97
2022-08-27T11:45:58.591Z,95194.84
2022-08-27T11:48:29.364Z,95191.59
2022-08-27T11:51:01.407Z,95189.53
2022-08-27T11:53:32.615Z,95186.91
2022-08-27T11:56:13.174Z,95183.41
2022-08-27T11:58:53.444Z,95184.25
2022-08-27T12:01:27.815Z,95183.03
2022-08-27T12:04:03.126Z,95180.78
2022-08-27T12:06:42.510Z,95170.19
2022-08-27T12:09:17.070Z,95172.00
2022-08-27T12:11:57.568Z,95170.56
2022-08-27T12:14:39.621Z,95162.44
2022-08-27T12:17:17.739Z,95166.53
2022-08-27T12:19:57.072Z,95162.44
2022-08-27T12:22:59.258Z,95164.25
2022-08-27T14:04:44.650Z,95115.94
2022-08-27T14:07:17.435Z,95127.53
2022-08-27T14:09:54.079Z,95127.34
2022-08-27T14:12:32.838Z,95121.41
2022-08-27T14:15:13.416Z,95126.69
2022-08-27T14:17:41.102Z,95120.66
2022-08-27T14:20:10.602Z,95123.88
2022-08-27T14:22:38.329Z,95121.63
2022-08-27T14:25:07.043Z,95128.34
2022-08-27T14:27:36.568Z,95123.66
2022-08-27T14:30:06.043Z,95118.94
2022-08-27T14:32:33.829Z,95115.41
2022-08-27T14:35:01.573Z,95120.13
2022-08-27T14:37:30.878Z,95120.16
2022-08-27T14:39:58.598Z,95111.78
2022-08-27T14:42:26.629Z,95117.91
2022-08-27T14:44:56.702Z,95110.56
2022-08-27T14:47:26.780Z,95111.06
2022-08-27T14:49:55.054Z,95100.56
2022-08-27T14:52:22.914Z,95093.66
2022-08-27T14:54:51.948Z,95095.34
2022-08-27T14:57:19.867Z,95097.88
2022-08-27T14:59:47.557Z,95095.47
2022-08-27T15:02:15.443Z,95090.47
2022-08-27T15:04:46.486Z,95096.97
2022-08-27T15:07:15.902Z,95088.09
2022-08-27T15:09:44.700Z,95083.00
2022-08-27T15:12:25.866Z,95074.53
2022-08-27T15:14:54.111Z,95077.47
2022-08-27T15:17:35.195Z,95071.13
2022-08-27T15:20:04.595Z,95073.41
2022-08-27T15:22:36.018Z,95078.09
2022-08-27T15:25:06.608Z,95084.94
2022-08-27T15:27:38.543Z,95080.19
2022-08-27T15:30:08.838Z,95077.72
2022-08-27T15:32:39.817Z,95084.31
2022-08-27T15:35:12.296Z,95077.53
2022-08-27T15:37:40.698Z,95088.56
2022-08-27T15:40:09.867Z,95092.50
2022-08-27T15:42:39.071Z,95087.25
2022-08-27T15:45:08.613Z,95081.50
2022-08-27T15:47:36.404Z,95082.44
2022-08-27T15:50:05.430Z,95097.63
2022-08-27T15:52:40.260Z,95098.97
2022-08-27T15:55:19.716Z,95100.09
2022-08-27T15:57:49.231Z,95094.47
2022-08-27T16:00:18.603Z,95094.28
2022-08-27T16:02:47.327Z,95100.88
2022-08-27T16:05:16.837Z,95102.38
2022-08-27T16:07:44.775Z,95103.81
2022-08-27T16:10:13.728Z,95109.75
2022-08-27T16:12:41.671Z,95106.72
2022-08-27T16:15:11.441Z,95112.06
2022-08-27T16:17:39.473Z,95101.63
2022-08-27T16:20:09.517Z,95107.53
2022-08-27T16:22:37.496Z,95104.91
2022-08-27T16:25:07.960Z,95119.28
2022-08-27T16:27:35.956Z,95105.53
2022-08-27T16:30:05.658Z,95108.19
2022-08-27T16:32:35.284Z,95102.03
2022-08-27T16:35:03.574Z,95096.06
2022-08-27T16:37:31.293Z,95106.31
2022-08-27T16:39:59.167Z,95101.44
2022-08-27T16:42:26.898Z,95102.75
2022-08-27T16:44:54.533Z,95101.50
2022-08-27T16:47:22.254Z,95105.03
2022-08-27T16:50:09.053Z,95110.34
2022-08-27T16:52:37.410Z,95107.69
2022-08-27T16:55:05.977Z,95111.22
2022-08-27T16:57:34.029Z,95120.69
2022-08-27T17:00:01.727Z,95128.03
2022-08-27T17:02:34.926Z,95133.41
2022-08-27T17:07:51.996Z,95130.59
2022-08-27T17:10:19.877Z,95130.59
2022-08-27T17:12:49.078Z,95137.31
2022-08-27T17:15:17.716Z,95129.19
2022-08-27T17:17:46.236Z,95133.53
2022-08-27T17:20:15.785Z,95139.28
2022-08-27T17:22:44.325Z,95140.09
2022-08-27T17:25:12.458Z,95150.88
2022-08-27T17:27:40.196Z,95141.91
2022-08-27T17:30:09.075Z,95139.25
2022-08-27T17:32:39.804Z,95149.44
2022-08-27T17:35:10.633Z,95145.03
2022-08-27T17:37:39.791Z,95148.72
2022-08-27T17:40:10.029Z,95152.28
2022-08-27T17:42:38.264Z,95160.38
2022-08-27T17:45:07.388Z,95152.03
2022-08-27T17:47:35.115Z,95149.41
2022-08-27T17:50:03.262Z,95158.81
2022-08-27T17:52:32.378Z,95156.44
2022-08-27T17:55:01.490Z,95155.66
2022-08-27T17:57:41.145Z,95163.19
2022-08-27T18:00:11.955Z,95163.63
2022-08-27T18:02:42.348Z,95163.59
2022-08-27T18:05:13.110Z,95162.41
2022-08-27T18:07:41.742Z,95169.53
2022-08-27T18:10:13.625Z,95166.50
2022-08-27T18:12:42.889Z,95175.66
2022-08-27T18:15:15.068Z,95180.16
2022-08-27T18:17:43.240Z,95187.69
2022-08-27T18:20:14.554Z,95193.59
2022-08-27T18:22:48.537Z,95202.34
2022-08-27T18:25:19.341Z,95197.28
2022-08-27T18:27:50.002Z,95205.84
2022-08-27T18:30:18.047Z,95209.28
2022-08-27T18:32:45.836Z,95201.97
2022-08-27T18:35:16.708Z,95204.59
2022-08-27T18:37:44.667Z,95208.31
2022-08-27T18:40:14.181Z,95217.03
2022-08-27T18:42:43.621Z,95222.56
2022-08-27T18:45:14.992Z,95214.38
2022-08-27T18:47:43.383Z,95213.16
2022-08-27T18:50:17.377Z,95220.13
2022-08-27T18:52:46.984Z,95215.22
2022-08-27T18:55:17.182Z,95223.16
2022-08-27T18:57:46.466Z,95229.69
2022-08-27T19:00:16.209Z,95234.16
2022-08-27T19:02:45.372Z,95232.91
2022-08-27T19:05:15.358Z,95232.91
2022-08-27T19:07:43.086Z,95236.16
2022-08-27T19:10:11.178Z,95246.13
2022-08-27T19:12:40.984Z,95249.75
2022-08-27T19:15:12.287Z,95238.75
2022-08-27T19:17:42.042Z,95246.56
2022-08-27T19:20:11.446Z,95242.81
2022-08-27T19:22:39.417Z,95244.84
2022-08-27T19:25:08.213Z,95255.44
2022-08-27T19:27:37.595Z,95246.06
2022-08-27T19:30:06.534Z,95243.00
2022-08-27T19:32:35.619Z,95250.53
2022-08-27T19:35:03.362Z,95259.72
2022-08-27T19:37:32.520Z,95257.06
2022-08-27T19:40:00.354Z,95260.63
2022-08-27T19:42:29.303Z,95261.09
2022-08-27T19:44:57.089Z,95264.94
2022-08-27T19:47:25.965Z,95264.72
2022-08-27T19:49:56.302Z,95260.44
2022-08-27T19:52:24.323Z,95264.09
2022-08-27T19:55:12.617Z,95270.28
2022-08-27T19:57:39.883Z,95264.69
2022-08-27T20:00:09.938Z,95272.00
2022-08-27T20:02:38.825Z,95273.06
2022-08-27T20:05:24.407Z,95267.56
2022-08-27T20:07:54.065Z,95270.00
2022-08-27T20:10:25.812Z,95259.81
2022-08-27T20:13:00.842Z,95269.16
2022-08-27T20:15:28.622Z,95267.94
2022-08-27T20:17:59.194Z,95269.78
2022-08-27T20:20:29.944Z,95267.75
2022-08-27T20:22:59.199Z,95267.09
2022-08-27T20:25:27.472Z,95272.56
2022-08-27T20:27:55.486Z,95278.22
2022-08-27T20:30:27.121Z,95271.63
2022-08-27T20:32:54.833Z,95268.50
2022-08-27T20:35:23.369Z,95280.97
2022-08-27T20:37:52.489Z,95274.34
2022-08-27T20:40:23.926Z,95278.47
2022-08-27T20:42:51.745Z,95288.44
2022-08-27T20:45:20.280Z,95283.25
2022-08-27T20:47:49.854Z,95287.75
2022-08-27T20:50:20.665Z,95281.06
2022-08-27T20:52:49.993Z,95289.25
2022-08-27T20:55:20.091Z,95289.19
2022-08-27T20:58:20.113Z,95293.00
2022-08-27T21:00:48.181Z,95300.47
2022-08-27T21:03:16.215Z,95302.25
2022-08-27T21:05:47.096Z,95301.09
2022-08-27T21:08:16.216Z,95291.47
2022-08-27T21:10:47.996Z,95293.88
2022-08-27T21:13:16.196Z,95300.47
2022-08-27T21:15:43.935Z,95299.53
2022-08-27T21:18:12.939Z,95296.84
2022-08-27T21:20:41.181Z,95300.53
2022-08-27T21:23:09.466Z,95313.38
2022-08-27T21:25:37.244Z,95310.31
2022-08-27T21:28:07.449Z,95317.25
2022-08-27T21:30:35.516Z,95320.16
2022-08-27T21:33:03.772Z,95319.34
2022-08-27T21:35:32.822Z,95318.66
2022-08-27T21:38:01.645Z,95320.00
2022-08-27T21:40:30.497Z,95316.00
2022-08-27T21:42:58.651Z,95325.41
2022-08-27T21:45:27.769Z,95319.34
2022-08-27T21:47:55.453Z,95313.84
2022-08-27T21:50:24.218Z,95319.13
2022-08-27T21:52:53.548Z,95324.63
2022-08-27T21:55:21.724Z,95327.56
2022-08-27T21:57:49.627Z,95323.22
2022-08-27T22:00:40.620Z,95327.97
2022-08-27T22:03:11.170Z,95333.66
2022-08-27T22:05:41.051Z,95334.00
2022-08-27T22:08:09.679Z,95327.13
2022-08-27T22:10:37.867Z,95330.09
2022-08-27T22:13:05.892Z,95340.19
2022-08-27T22:15:33.936Z,95336.72
2022-08-27T22:18:03.384Z,95339.50
2022-08-27T22:20:31.106Z,95344.44
2022-08-27T22:22:58.902Z,95349.16
2022-08-27T22:25:27.613Z,95345.44
2022-08-27T22:28:11.618Z,95344.06
2022-08-27T22:30:39.917Z,95335.44
2022-08-27T22:33:09.744Z,95347.81
2022-08-27T22:35:37.549Z,95349.75
2022-08-27T22:38:05.380Z,95345.38
2022-08-27T22:40:35.150Z,95343.16
2022-08-27T22:43:03.075Z,95342.97
2022-08-27T22:45:30.966Z,95341.72
2022-08-27T22:47:58.937Z,95334.63
2022-08-27T22:50:28.486Z,95337.38
2022-08-27T22:52:56.142Z,95329.25
2022-08-27T22:55:25.233Z,95330.00
2022-08-27T22:57:55.410Z,95332.63
2022-08-27T23:00:26.369Z,95327.06
2022-08-27T23:02:54.418Z,95329.75
2022-08-27T23:05:23.359Z,95327.28
2022-08-27T23:07:53.063Z,95327.72
2022-08-27T23:10:24.071Z,95331.34
2022-08-27T23:12:53.555Z,95329.00
2022-08-27T23:15:24.003Z,95324.91
2022-08-27T23:17:51.697Z,95321.53
2022-08-27T23:20:21.788Z,95321.44
2022-08-27T23:22:50.374Z,95323.81
2022-08-27T23:25:54.292Z,95322.66
2022-08-27T23:28:23.364Z,95318.66
2022-08-27T23:30:51.480Z,95310.09
2022-08-27T23:33:20.051Z,95312.16
2022-08-27T23:35:51.313Z,95320.00
2022-08-27T23:38:21.161Z,95315.91
2022-08-27T23:40:52.108Z,95313.53
2022-08-27T23:43:21.515Z,95322.53
2022-08-27T23:45:49.794Z,95322.53
2022-08-27T23:48:17.598Z,95319.44
2022-08-27T23:50:45.701Z,95321.00
2022-08-27T23:53:14.625Z,95321.16
2022-08-27T23:55:42.558Z,95321.72
2022-08-27T23:58:11.846Z,95313.09
